Terminal Aerodrome Forecast
Issued by NWS Boston, MA

Home | Current Version | Previous Version | Text Only | Print | Product List | Glossary On
Versions: 1 2 3 4 5 6 7 8 9 10 11 12 13 14 15 16 17 18 19 20 21 22 23 24 25 26 27 28 29 30 31 32 33 34 35 36 37 38 39 40 41 42 43 44 45 46 47 48 49 50
000
FTUS41 KBOX 251128
TAFBOS
TAF
KBOS 251128Z 2512/2618 12004KT P6SM BKN170 BKN250
     FM251500 15006KT P6SM SCT140 BKN250
     FM251800 14010KT P6SM BKN130
     FM252100 18011G18KT P6SM VCTS SCT040CB
     FM260100 22008KT P6SM VCSH BKN060
     FM260500 24006KT P6SM SCT150
     FM261200 28009KT P6SM SKC=

USA.gov is the U.S. government's official web portal to all federal, state and local government web resources and services.